Terminal Aerodrome Forecast
Issued by NWS Portland, OR

Home | Current Version | Previous Version | Text Only | Print | Product List | Glossary On
Versions: 1 2 3 4 5 6 7 8 9 10 11 12 13
000
FTUS46 KPQR 181720
TAFEUG
TAF
KEUG 181720Z 1818/1918 01007KT P6SM SKC
     FM182000 36012G20KT P6SM SKC
     FM190400 36007KT P6SM SKC
     FM191100 VRB03KT P6SM SCT020
      TEMPO 1913/1917 BKN016=

USA.gov is the U.S. government's official web portal to all federal, state and local government web resources and services.